Dublin, Texas
Current Conditions -  °F | °C
As of 9:55 AM on Thursday 27 Nov 2014 (Local Time) from KSEP Reporting Station
Clear Clear  
Wind Chill: 43°   Ceiling: Unl
Heat Index: 47°   Visibility: 10mi
Dew Point: 25°   Wind: 9mph
Humidity: 42%   Direction: 90°E
Pressure: 30.56"   Gusts: NA
Location:  32.09°N, 98.34°W
Report Text: KSEP 271555Z AUTO 09008KT 10SM CLR 09/M04 A3056 RMK AO2 T00851039
Loading
Personal Weather Stations






























Interactive Weather Map New forecast layout! Learn more

10-Day Weather Forecast

Advertisements
Track Severe Weather on mobile